CDT,Max TemperatureF,Mean TemperatureF,Min TemperatureF,Max Dew PointF,MeanDew PointF,Min DewpointF,Max Humidity, Mean Humidity, Min Humidity, Max Sea Level PressureIn, Mean Sea Level PressureIn, Min Sea Level PressureIn, Max VisibilityMiles, Mean VisibilityMiles, Min VisibilityMiles, Max Wind SpeedMPH, Mean Wind SpeedMPH, Max Gust SpeedMPH,PrecipitationIn, CloudCover, Events, WindDirDegrees
2012-10-1,69,56,43,50,41,28,83,53,23,30.21,30.12,29.99,10,10,10,26,12,31,0.01,3,Rain,332
2012-10-2,86,64,41,35,32,28,57,37,16,30.04,29.82,29.68,10,10,10,25,15,33,0.00,0,,187
2012-10-3,73,57,40,42,37,32,76,52,27,30.17,29.78,29.61,10,10,10,40,20,51,T,2,Rain,254
2012-10-4,50,42,34,34,29,24,79,61,42,30.40,30.33,30.18,10,10,10,29,16,35,0.00,6,,317
2012-10-5,50,39,27,27,22,18,85,58,31,30.42,30.39,30.34,10,10,10,23,10,29,0.00,0,,302
2012-10-6,46,34,21,24,19,14,84,59,33,30.49,30.42,30.32,10,10,10,18,8,28,0.00,0,,298
2012-10-7,61,45,29,29,23,14,78,49,19,30.29,30.07,29.88,10,10,10,22,11,29,0.00,0,,241
2012-10-8,69,58,46,45,34,26,77,52,27,29.86,29.80,29.75,10,10,8,26,13,33,T,5,Rain,266
2012-10-9,52,42,32,45,28,18,86,58,29,30.19,30.04,29.86,10,10,10,31,16,39,T,4,Rain,298
2012-10-10,71,51,31,37,29,21,78,49,20,30.19,30.03,29.86,10,10,10,21,11,25,0.00,1,,215
2012-10-11,55,43,31,37,31,25,76,61,46,30.43,30.19,29.85,10,10,10,25,11,30,0.00,0,,3
2012-10-12,63,47,31,36,28,18,72,48,23,30.42,30.09,29.81,10,10,10,33,18,40,0.00,1,,166
2012-10-13,73,60,46,40,37,31,66,47,28,29.88,29.71,29.65,10,10,10,26,12,35,0.00,0,,279
2012-10-14,73,58,42,41,35,32,70,49,27,30.01,29.96,29.90,10,10,10,28,11,37,0.00,1,,294
2012-10-15,83,67,50,35,33,30,50,33,16,29.96,29.78,29.61,10,10,10,21,10,25,0.00,0,,219
2012-10-16,76,64,51,47,40,32,71,48,25,29.66,29.48,29.21,10,10,10,33,12,46,T,2,Rain,256
2012-10-17,61,53,45,49,27,16,83,51,19,29.64,29.52,29.30,10,8,1,51,30,63,0.03,3,Rain,299
2012-10-18,49,47,44,34,29,21,65,50,34,29.87,29.71,29.60,10,9,2,59,40,71,T,7,Rain,313
2012-10-19,55,47,38,34,30,26,76,57,38,29.93,29.86,29.76,10,10,9,37,14,46,0.00,3,,301
2012-10-20,81,60,39,31,26,16,57,36,14,29.76,29.61,29.50,10,10,6,22,10,29,0.00,0,,170
2012-10-21,67,55,43,45,38,28,83,55,27,29.98,29.76,29.48,10,10,10,24,15,31,0.00,0,,345
2012-10-22,49,45,40,45,41,37,93,85,76,30.01,29.94,29.81,10,6,0,14,5,15,T,8,Fog-Rain,39
2012-10-23,77,61,44,52,47,40,100,69,38,29.89,29.71,29.60,10,8,4,31,9,36,0.00,5,,196
2012-10-24,51,42,33,40,34,30,100,73,46,30.08,29.97,29.89,10,7,1,25,12,30,T,4,Snow,337
2012-10-25,33,32,30,32,28,24,96,83,69,30.43,30.18,30.00,10,8,1,28,16,33,T,8,Snow,318
2012-10-26,35,30,24,25,24,21,81,71,61,30.55,30.47,30.38,10,10,10,20,12,22,0.00,6,,265
2012-10-27,44,35,25,34,28,21,92,77,62,30.35,30.22,30.10,10,10,9,25,9,33,0.00,2,,184
2012-10-28,54,37,20,36,29,20,92,69,45,30.24,30.13,30.02,10,8,2,21,9,28,0.00,2,,140
2012-10-29,69,51,33,38,34,29,82,57,31,30.06,30.01,29.97,10,10,10,21,9,26,0.00,2,,153
2012-10-30,65,53,40,40,37,34,79,60,40,30.04,30.00,29.95,10,10,10,14,6,16,T,3,,145
2012-10-31,73,55,37,42,39,37,92,62,31,30.04,29.99,29.94,10,10,9,16,6,18,0.00,0,,259